createdAt,value
2022-10-23T00:00:39.699Z,21.12
2022-10-23T00:03:06.299Z,21.10
2022-10-23T00:05:32.965Z,21.07
2022-10-23T00:08:00.153Z,21.05
2022-10-23T00:10:28.337Z,21.04
2022-10-23T00:12:54.996Z,21.02
2022-10-23T00:15:23.526Z,21.00
2022-10-23T00:17:50.385Z,20.96
2022-10-23T00:20:17.542Z,20.97
2022-10-23T00:22:44.027Z,20.94
2022-10-23T00:25:11.310Z,20.92
2022-10-23T00:27:37.822Z,20.91
2022-10-23T00:30:05.950Z,20.89
2022-10-23T00:35:04.515Z,20.85
2022-10-23T00:37:31.416Z,20.84
2022-10-23T00:39:58.050Z,20.82
2022-10-23T00:42:24.747Z,20.81
2022-10-23T00:44:51.188Z,20.80
2022-10-23T00:47:18.410Z,20.79
2022-10-23T00:49:44.950Z,20.77
2022-10-23T00:52:13.343Z,20.75
2022-10-23T00:54:42.137Z,20.75
2022-10-23T00:57:12.535Z,20.73
2022-10-23T00:59:39.100Z,20.72
2022-10-23T01:02:06.140Z,20.69
2022-10-23T01:04:34.031Z,20.67
2022-10-23T01:07:27.930Z,20.66
2022-10-23T01:10:10.324Z,20.65
2022-10-23T01:13:00.132Z,20.64
2022-10-23T01:15:36.690Z,20.63
2022-10-23T01:18:25.360Z,20.60
2022-10-23T01:21:20.899Z,20.58
2022-10-23T01:24:06.927Z,20.57
2022-10-23T01:26:57.377Z,20.55
2022-10-23T01:29:31.920Z,20.56
2022-10-23T01:32:06.067Z,20.55
2022-10-23T01:34:44.680Z,20.53
2022-10-23T01:37:13.893Z,20.52
2022-10-23T01:39:47.845Z,20.51
2022-10-23T01:42:21.814Z,20.49
2022-10-23T01:45:03.207Z,20.48
2022-10-23T01:47:33.951Z,20.48
2022-10-23T01:50:02.481Z,20.46
2022-10-23T01:52:29.168Z,20.45
2022-10-23T01:55:00.461Z,20.44
2022-10-23T01:57:31.264Z,20.42
2022-10-23T02:00:06.217Z,20.42
2022-10-23T02:02:33.957Z,20.42
2022-10-23T02:05:15.338Z,20.41
2022-10-23T02:07:42.425Z,20.41
2022-10-23T02:10:10.458Z,20.39
2022-10-23T02:12:56.057Z,20.39
2022-10-23T02:15:31.769Z,20.38
2022-10-23T02:18:27.609Z,20.36
2022-10-23T02:20:59.041Z,20.36
2022-10-23T02:23:33.130Z,20.35
2022-10-23T02:26:12.592Z,20.35
2022-10-23T02:28:46.389Z,20.33
2022-10-23T02:31:16.344Z,20.33
2022-10-23T02:33:45.868Z,20.32
2022-10-23T02:36:12.724Z,20.31
2022-10-23T02:38:41.745Z,20.32
2022-10-23T02:41:17.524Z,20.30
2022-10-23T02:44:10.180Z,20.28
2022-10-23T02:46:50.891Z,20.29
2022-10-23T02:49:26.623Z,20.27
2022-10-23T02:52:21.359Z,20.27
2022-10-23T02:55:25.472Z,20.25
2022-10-23T02:58:08.842Z,20.27
2022-10-23T03:00:39.687Z,20.25
2022-10-23T03:03:13.311Z,20.24
2022-10-23T03:05:41.360Z,20.22
2022-10-23T03:08:13.451Z,20.23
2022-10-23T03:10:41.973Z,20.23
2022-10-23T03:13:10.468Z,20.20
2022-10-23T03:15:36.939Z,20.21
2022-10-23T03:18:03.668Z,20.20
2022-10-23T03:20:30.155Z,20.18
2022-10-23T03:22:56.611Z,20.19
2022-10-23T03:25:23.061Z,20.17
2022-10-23T03:27:49.579Z,20.16
2022-10-23T03:30:17.261Z,20.16
2022-10-23T03:32:43.796Z,20.17
2022-10-23T03:35:10.631Z,20.17
2022-10-23T03:37:37.164Z,20.15
2022-10-23T03:40:04.535Z,20.16
2022-10-23T03:42:31.012Z,20.15
2022-10-23T03:44:57.459Z,20.14
2022-10-23T03:47:23.989Z,20.12
2022-10-23T03:49:50.460Z,20.13
2022-10-23T03:52:16.958Z,20.13
2022-10-23T03:54:43.524Z,20.12
2022-10-23T03:57:09.991Z,20.12
2022-10-23T03:59:36.511Z,20.11
2022-10-23T04:02:03.025Z,20.11
2022-10-23T04:04:29.727Z,20.10
2022-10-23T04:06:56.190Z,20.10
2022-10-23T04:09:22.781Z,20.11
2022-10-23T04:11:49.318Z,20.09
2022-10-23T04:14:15.825Z,20.10
2022-10-23T04:16:42.402Z,20.09
2022-10-23T04:19:08.989Z,20.08
2022-10-23T04:21:35.530Z,20.08
2022-10-23T04:24:02.070Z,20.08
2022-10-23T04:26:28.604Z,20.06
2022-10-23T04:28:55.057Z,20.06
2022-10-23T04:31:21.666Z,20.05
2022-10-23T04:33:48.259Z,20.05
2022-10-23T04:36:14.728Z,20.05
2022-10-23T04:38:41.252Z,20.05
2022-10-23T04:41:08.421Z,20.05
2022-10-23T04:43:35.147Z,20.04
2022-10-23T04:46:01.812Z,20.04
2022-10-23T04:48:29.238Z,20.03
2022-10-23T04:51:01.235Z,20.02
2022-10-23T04:53:28.916Z,20.03
2022-10-23T04:55:56.984Z,20.02
2022-10-23T04:58:24.200Z,20.00
2022-10-23T05:00:51.101Z,20.01
2022-10-23T05:03:18.753Z,20.01
2022-10-23T05:05:45.974Z,20.01
2022-10-23T05:08:15.629Z,19.99
2022-10-23T05:10:44.519Z,20.00
2022-10-23T05:13:11.085Z,19.99
2022-10-23T05:15:37.608Z,20.00
2022-10-23T05:18:25.815Z,19.99
2022-10-23T05:20:56.635Z,19.99
2022-10-23T05:23:25.444Z,19.98
2022-10-23T05:25:51.914Z,19.98
2022-10-23T05:28:18.575Z,19.96
2022-10-23T05:30:45.660Z,19.97
2022-10-23T05:33:12.348Z,19.97
2022-10-23T05:35:39.502Z,19.97
2022-10-23T05:38:07.557Z,19.97
2022-10-23T05:40:34.188Z,19.96
2022-10-23T05:43:00.631Z,19.95
2022-10-23T05:45:27.182Z,19.95
2022-10-23T05:47:53.901Z,19.94
2022-10-23T05:50:21.417Z,19.95
2022-10-23T05:52:48.602Z,19.94
2022-10-23T05:55:16.467Z,19.95
2022-10-23T05:57:43.363Z,19.93
2022-10-23T06:00:10.805Z,19.95
2022-10-23T06:02:37.409Z,19.94
2022-10-23T06:05:04.169Z,19.92
2022-10-23T06:07:33.589Z,19.92
2022-10-23T06:10:02.694Z,19.93
2022-10-23T06:12:29.224Z,19.92
2022-10-23T06:14:55.716Z,19.91
2022-10-23T06:17:22.232Z,19.91
2022-10-23T06:19:49.005Z,19.91
2022-10-23T06:22:15.788Z,19.92
2022-10-23T06:24:42.373Z,19.90
2022-10-23T06:27:08.875Z,19.90
2022-10-23T06:29:35.340Z,19.90
2022-10-23T06:32:01.962Z,19.90
2022-10-23T06:34:28.436Z,19.90
2022-10-23T06:36:54.902Z,19.89
2022-10-23T06:39:22.158Z,19.89
2022-10-23T06:41:48.606Z,19.89
2022-10-23T06:44:15.119Z,19.88
2022-10-23T06:46:41.761Z,19.89
2022-10-23T06:49:08.225Z,19.88
2022-10-23T06:51:34.679Z,19.88
2022-10-23T06:54:01.201Z,19.88
2022-10-23T06:56:29.221Z,19.88
2022-10-23T06:58:56.571Z,19.89
2022-10-23T07:01:23.166Z,19.86
2022-10-23T07:03:49.701Z,19.88
2022-10-23T07:06:16.239Z,19.88
2022-10-23T07:08:42.853Z,19.87
2022-10-23T07:11:10.855Z,19.88
2022-10-23T07:13:38.860Z,19.88
2022-10-23T07:16:13.380Z,19.87
2022-10-23T07:18:39.977Z,19.87
2022-10-23T07:21:06.547Z,19.88
2022-10-23T07:23:32.997Z,19.88
2022-10-23T07:26:11.158Z,19.89
2022-10-23T07:28:37.875Z,19.89
2022-10-23T07:31:04.562Z,19.88
2022-10-23T07:33:31.076Z,19.89
2022-10-23T07:35:57.531Z,19.90
2022-10-23T07:38:24.106Z,19.89
2022-10-23T07:40:50.716Z,19.89
2022-10-23T07:43:18.612Z,19.90
2022-10-23T07:45:48.438Z,19.90
2022-10-23T07:48:15.169Z,19.90
2022-10-23T07:50:41.820Z,19.90
2022-10-23T07:53:30.996Z,19.90
2022-10-23T07:56:00.401Z,19.91
2022-10-23T07:58:28.032Z,19.90
2022-10-23T08:00:58.617Z,19.90
2022-10-23T08:03:26.781Z,19.90
2022-10-23T08:05:54.804Z,19.90
2022-10-23T08:08:22.369Z,19.91
2022-10-23T08:10:50.138Z,19.91
2022-10-23T08:13:17.546Z,19.90
2022-10-23T08:15:47.000Z,19.92
2022-10-23T08:18:14.003Z,19.91
2022-10-23T08:20:44.471Z,19.92
2022-10-23T08:23:16.899Z,19.92
2022-10-23T08:25:43.544Z,19.93
2022-10-23T08:28:10.096Z,19.93
2022-10-23T08:30:37.356Z,19.92
2022-10-23T08:33:05.651Z,19.92
2022-10-23T08:35:38.998Z,19.93
2022-10-23T08:38:06.424Z,19.93
2022-10-23T08:40:33.005Z,19.93
2022-10-23T08:43:05.801Z,19.92
2022-10-23T08:45:45.028Z,19.93
2022-10-23T08:48:30.298Z,19.93
2022-10-23T08:51:06.252Z,19.93
2022-10-23T08:53:59.756Z,19.92
2022-10-23T08:56:30.908Z,19.96
2022-10-23T08:59:00.018Z,19.93
2022-10-23T09:01:47.750Z,19.93
2022-10-23T09:04:15.454Z,19.92
2022-10-23T09:10:08.764Z,19.92
2022-10-23T09:12:35.276Z,19.93
2022-10-23T09:15:14.256Z,19.93
2022-10-23T09:17:43.380Z,19.93
2022-10-23T09:20:19.435Z,19.92
2022-10-23T09:22:47.628Z,19.92
2022-10-23T09:25:26.081Z,19.93
2022-10-23T09:27:57.330Z,19.93
2022-10-23T09:30:29.128Z,19.94
2022-10-23T09:32:55.618Z,19.92
2022-10-23T09:35:24.749Z,19.91
2022-10-23T09:37:53.376Z,19.91
2022-10-23T09:40:40.472Z,19.89
2022-10-23T09:43:18.980Z,19.89
2022-10-23T09:45:57.536Z,19.88
2022-10-23T09:48:24.060Z,19.88
2022-10-23T09:50:59.710Z,19.87
2022-10-23T09:53:38.458Z,19.87
2022-10-23T09:56:11.773Z,19.89
2022-10-23T09:58:54.665Z,19.87
2022-10-23T10:01:26.855Z,19.90
2022-10-23T10:03:54.060Z,19.90
2022-10-23T10:06:30.143Z,19.89
2022-10-23T10:08:59.178Z,19.92
2022-10-23T10:11:54.706Z,19.91
2022-10-23T10:14:39.822Z,19.93
2022-10-23T10:17:13.615Z,19.92
2022-10-23T10:19:40.066Z,19.91
2022-10-23T10:22:47.075Z,19.92
2022-10-23T10:25:19.631Z,19.93
2022-10-23T10:28:16.617Z,19.93
2022-10-23T10:31:04.999Z,19.92
2022-10-23T10:33:43.604Z,19.94
2022-10-23T10:36:54.509Z,19.92
2022-10-23T10:39:47.673Z,19.95
2022-10-23T10:42:47.544Z,19.96
2022-10-23T10:45:33.023Z,19.97
2022-10-23T10:48:17.809Z,19.98
2022-10-23T10:50:56.996Z,19.98
2022-10-23T10:54:09.493Z,19.99
2022-10-23T10:56:41.605Z,20.01
2022-10-23T10:59:21.985Z,20.00
2022-10-23T11:02:26.090Z,20.02
2022-10-23T11:05:17.475Z,20.05
2022-10-23T11:08:07.173Z,20.05
2022-10-23T11:10:37.780Z,20.07
2022-10-23T11:13:04.578Z,20.09
2022-10-23T11:15:39.634Z,20.09
2022-10-23T11:18:15.656Z,20.11
2022-10-23T11:20:59.146Z,20.12
2022-10-23T11:23:56.218Z,20.14
2022-10-23T11:26:46.894Z,20.15
2022-10-23T11:29:25.192Z,20.15
2022-10-23T11:32:26.990Z,20.15
2022-10-23T11:35:02.538Z,20.14
2022-10-23T11:37:29.221Z,20.16
2022-10-23T11:40:02.560Z,20.15
2022-10-23T11:42:34.202Z,20.14
2022-10-23T11:45:00.714Z,20.16
2022-10-23T11:47:39.980Z,20.15
2022-10-23T11:50:06.672Z,20.15
2022-10-23T11:52:38.745Z,20.17
2022-10-23T11:55:21.610Z,20.17
2022-10-23T11:58:07.026Z,20.17
2022-10-23T12:00:38.689Z,20.18
2022-10-23T12:03:06.379Z,20.18
2022-10-23T12:05:37.855Z,20.19
2022-10-23T12:08:08.282Z,20.20
2022-10-23T12:10:50.857Z,20.20
2022-10-23T12:13:38.309Z,20.21
2022-10-23T12:16:08.239Z,20.25
2022-10-23T12:18:46.608Z,20.25
2022-10-23T12:21:18.252Z,20.27
2022-10-23T12:23:59.820Z,20.28
2022-10-23T12:26:43.472Z,20.29
2022-10-23T12:29:36.768Z,20.29
2022-10-23T12:32:21.577Z,20.28
2022-10-23T12:35:06.529Z,20.29
2022-10-23T12:38:05.144Z,20.28
2022-10-23T12:40:31.705Z,20.29
2022-10-23T12:43:00.116Z,20.29
2022-10-23T12:45:30.039Z,20.28
2022-10-23T12:47:56.621Z,20.29
2022-10-23T12:50:27.750Z,20.28
2022-10-23T12:52:57.537Z,20.29
2022-10-23T12:55:26.587Z,20.29
2022-10-23T12:57:53.689Z,20.29
2022-10-23T13:00:24.870Z,20.29
2022-10-23T13:03:02.440Z,20.28
2022-10-23T13:05:30.387Z,20.30
2022-10-23T13:07:59.215Z,20.31
2022-10-23T13:10:26.344Z,20.30
2022-10-23T13:13:14.072Z,20.29
2022-10-23T13:15:42.979Z,20.30
2022-10-23T13:18:11.586Z,20.31
2022-10-23T13:20:42.392Z,20.32
2022-10-23T13:23:11.920Z,20.32
2022-10-23T13:25:39.869Z,20.33
2022-10-23T13:28:18.195Z,20.32
2022-10-23T13:30:48.546Z,20.34
2022-10-23T13:33:22.205Z,20.35
2022-10-23T13:36:15.099Z,20.37
2022-10-23T13:38:46.482Z,20.37
2022-10-23T13:41:18.995Z,20.37
2022-10-23T13:43:49.506Z,20.37
2022-10-23T13:46:18.661Z,20.38
2022-10-23T13:48:45.714Z,20.37
2022-10-23T13:51:21.074Z,20.38
2022-10-23T13:53:48.205Z,20.37
2022-10-23T13:56:17.903Z,20.38
2022-10-23T13:58:44.442Z,20.38
2022-10-23T14:01:23.282Z,20.38
2022-10-23T14:03:51.885Z,20.39
2022-10-23T14:06:18.901Z,20.39
2022-10-23T14:08:46.021Z,20.38
2022-10-23T14:13:41.925Z,20.39
2022-10-23T14:16:11.539Z,20.40
2022-10-23T14:18:38.007Z,20.40
2022-10-23T14:21:06.973Z,20.41
2022-10-23T14:23:33.466Z,20.41
2022-10-23T14:26:07.281Z,20.41
2022-10-23T14:28:34.221Z,20.42
2022-10-23T14:31:08.984Z,20.42
2022-10-23T14:33:35.526Z,20.42
2022-10-23T14:36:02.329Z,20.43
2022-10-23T14:38:29.369Z,20.43
2022-10-23T14:40:55.886Z,20.44
2022-10-23T14:43:23.779Z,20.45
2022-10-23T14:45:50.275Z,20.44
2022-10-23T14:48:17.078Z,20.45
2022-10-23T14:50:46.510Z,20.44
2022-10-23T14:53:13.407Z,20.45
2022-10-23T14:55:40.056Z,20.46
2022-10-23T14:58:06.969Z,20.48
2022-10-23T15:00:33.465Z,20.47
2022-10-23T15:03:00.270Z,20.46
2022-10-23T15:05:26.836Z,20.48
2022-10-23T15:07:55.090Z,20.49
2022-10-23T15:10:21.625Z,20.49
2022-10-23T15:12:48.633Z,20.51
2022-10-23T15:15:15.244Z,20.52
2022-10-23T15:17:42.315Z,20.53
2022-10-23T15:20:09.351Z,20.54
2022-10-23T15:22:35.850Z,20.57
2022-10-23T15:25:02.570Z,20.56
2022-10-23T15:27:29.063Z,20.57
2022-10-23T15:29:55.570Z,20.59
2022-10-23T15:32:22.107Z,20.60
2022-10-23T15:34:49.758Z,20.60
2022-10-23T15:37:16.371Z,20.60
2022-10-23T15:39:43.104Z,20.59
2022-10-23T15:42:10.596Z,20.59
2022-10-23T15:44:37.109Z,20.58
2022-10-23T15:47:03.639Z,20.57
2022-10-23T15:49:30.967Z,20.56
2022-10-23T15:51:58.080Z,20.57
2022-10-23T15:54:28.037Z,20.55
2022-10-23T15:56:57.535Z,20.54
2022-10-23T15:59:25.367Z,20.53
2022-10-23T16:01:52.091Z,20.53
2022-10-23T16:04:19.050Z,20.53
2022-10-23T16:06:46.136Z,20.53
2022-10-23T16:09:12.641Z,20.54
2022-10-23T16:11:41.380Z,20.54
2022-10-23T16:14:12.552Z,20.54
2022-10-23T16:16:39.035Z,20.56
2022-10-23T16:19:05.575Z,20.55
2022-10-23T16:21:35.940Z,20.55
2022-10-23T16:24:05.739Z,20.54
2022-10-23T16:26:32.693Z,20.53
2022-10-23T16:29:01.789Z,20.54
2022-10-23T16:31:29.718Z,20.53
2022-10-23T16:34:00.938Z,20.53
2022-10-23T16:36:28.000Z,20.53
2022-10-23T16:38:54.545Z,20.52
2022-10-23T16:41:21.087Z,20.55
2022-10-23T16:43:47.592Z,20.54
2022-10-23T16:46:18.213Z,20.58
2022-10-23T16:48:44.983Z,20.58
2022-10-23T16:51:15.512Z,20.59
2022-10-23T16:53:43.109Z,20.63
2022-10-23T16:56:12.089Z,20.67
2022-10-23T16:58:42.105Z,20.73
2022-10-23T17:01:14.773Z,20.79
2022-10-23T17:03:45.936Z,20.87
2022-10-23T17:06:15.149Z,20.92
2022-10-23T17:08:42.305Z,21.00
2022-10-23T17:11:15.872Z,21.05
2022-10-23T17:13:53.649Z,21.12
2022-10-23T17:16:36.835Z,21.22
2022-10-23T17:19:16.076Z,21.31
2022-10-23T17:21:53.833Z,21.38
2022-10-23T17:24:20.356Z,21.45
2022-10-23T17:26:46.803Z,21.51
2022-10-23T17:29:16.298Z,21.56
2022-10-23T17:31:46.174Z,21.60
2022-10-23T17:34:15.530Z,21.65
2022-10-23T17:36:44.970Z,21.66
2022-10-23T17:39:14.700Z,21.68
2022-10-23T17:41:41.447Z,21.69
2022-10-23T17:44:07.945Z,21.69
2022-10-23T17:46:34.437Z,21.68
2022-10-23T17:51:35.573Z,21.66
2022-10-23T17:54:08.115Z,21.64
2022-10-23T17:56:37.639Z,21.63
2022-10-23T17:59:14.727Z,21.62
2022-10-23T18:01:46.501Z,21.61
2022-10-23T18:04:15.488Z,21.59
2022-10-23T18:06:45.785Z,21.57
2022-10-23T18:09:12.972Z,21.56
2022-10-23T18:11:45.307Z,21.54
2022-10-23T18:14:15.098Z,21.52
2022-10-23T18:16:41.792Z,21.50
2022-10-23T18:19:08.882Z,21.49
2022-10-23T18:21:36.373Z,21.48
2022-10-23T18:24:03.717Z,21.46
2022-10-23T18:26:34.848Z,21.44
2022-10-23T18:29:04.329Z,21.43
2022-10-23T18:31:30.947Z,21.43
2022-10-23T18:34:07.431Z,21.41
2022-10-23T18:36:37.454Z,21.40
2022-10-23T18:39:05.516Z,21.40
2022-10-23T18:41:34.363Z,21.38
2022-10-23T18:44:01.358Z,21.37
2022-10-23T18:46:28.174Z,21.36
2022-10-23T18:48:54.698Z,21.34
2022-10-23T18:51:24.494Z,21.34
2022-10-23T18:53:51.495Z,21.33
2022-10-23T18:56:23.611Z,21.32
2022-10-23T18:58:55.464Z,21.31
2022-10-23T19:01:23.279Z,21.30
2022-10-23T19:03:50.319Z,21.29
2022-10-23T19:06:17.141Z,21.28
2022-10-23T19:08:44.729Z,21.27
2022-10-23T19:11:13.267Z,21.26
2022-10-23T19:13:41.354Z,21.25
2022-10-23T19:16:14.314Z,21.24
2022-10-23T19:18:46.937Z,21.21
2022-10-23T19:21:14.070Z,21.20
2022-10-23T19:23:42.279Z,21.18
2022-10-23T19:26:12.335Z,21.17
2022-10-23T19:28:45.829Z,21.15
2022-10-23T19:31:12.857Z,21.14
2022-10-23T19:33:39.591Z,21.13
2022-10-23T19:36:11.130Z,21.12
2022-10-23T19:38:40.768Z,21.11
2022-10-23T19:41:07.590Z,21.10
2022-10-23T19:43:34.296Z,21.08
2022-10-23T19:46:04.984Z,21.07
2022-10-23T19:48:34.400Z,21.06
2022-10-23T19:51:01.337Z,21.06
2022-10-23T19:53:27.834Z,21.04
2022-10-23T19:56:05.454Z,21.03
2022-10-23T19:58:32.775Z,21.02
2022-10-23T20:00:59.452Z,21.01
2022-10-23T20:03:26.063Z,20.99
2022-10-23T20:05:52.599Z,20.98
2022-10-23T20:08:19.107Z,20.96
2022-10-23T20:10:47.883Z,20.92
2022-10-23T20:13:19.796Z,20.91
2022-10-23T20:15:47.115Z,20.89
2022-10-23T20:18:13.622Z,20.87
2022-10-23T20:20:41.725Z,20.85
2022-10-23T20:23:08.924Z,20.85
2022-10-23T20:25:35.621Z,20.83
2022-10-23T20:28:02.756Z,20.81
2022-10-23T20:30:29.369Z,20.80
2022-10-23T20:32:55.879Z,20.78
2022-10-23T20:35:22.369Z,20.77
2022-10-23T20:37:48.872Z,20.76
2022-10-23T20:40:15.389Z,20.76
2022-10-23T20:42:41.919Z,20.74
2022-10-23T20:45:08.943Z,20.72
2022-10-23T20:47:35.412Z,20.71
2022-10-23T20:50:01.878Z,20.70
2022-10-23T20:52:30.142Z,20.69
2022-10-23T20:54:56.739Z,20.68
2022-10-23T20:57:23.266Z,20.67
2022-10-23T20:59:49.787Z,20.67
2022-10-23T21:02:16.313Z,20.66
2022-10-23T21:04:42.869Z,20.65
2022-10-23T21:07:11.066Z,20.64
2022-10-23T21:09:39.044Z,20.63
2022-10-23T21:12:06.590Z,20.63
2022-10-23T21:14:33.534Z,20.61
2022-10-23T21:17:00.252Z,20.61
2022-10-23T21:19:26.815Z,20.61
2022-10-23T21:21:54.674Z,20.60
2022-10-23T21:24:21.479Z,20.59
2022-10-23T21:26:48.139Z,20.58
2022-10-23T21:29:19.840Z,20.57
2022-10-23T21:31:55.588Z,20.57
2022-10-23T21:34:23.186Z,20.56
2022-10-23T21:39:36.178Z,20.55
2022-10-23T21:42:02.665Z,20.54
2022-10-23T21:44:29.214Z,20.54
2022-10-23T21:46:55.846Z,20.53
2022-10-23T21:49:22.368Z,20.52
2022-10-23T21:51:48.854Z,20.51
2022-10-23T21:54:15.502Z,20.51
2022-10-23T21:56:47.457Z,20.50
2022-10-23T21:59:17.767Z,20.50
2022-10-23T22:01:46.122Z,20.49
2022-10-23T22:04:14.786Z,20.49
2022-10-23T22:06:42.679Z,20.49
2022-10-23T22:09:11.405Z,20.48
2022-10-23T22:11:37.986Z,20.48
2022-10-23T22:14:04.913Z,20.45
2022-10-23T22:16:31.790Z,20.45
2022-10-23T22:18:58.359Z,20.44
2022-10-23T22:21:27.652Z,20.45
2022-10-23T22:23:56.015Z,20.43
2022-10-23T22:26:35.584Z,20.42
2022-10-23T22:29:06.350Z,20.42
2022-10-23T22:31:34.413Z,20.42
2022-10-23T22:34:13.091Z,20.42
2022-10-23T22:36:48.745Z,20.42
2022-10-23T22:39:15.371Z,20.41
2022-10-23T22:41:43.559Z,20.40
2022-10-23T22:44:11.822Z,20.39
2022-10-23T22:46:38.689Z,20.39
2022-10-23T22:51:33.248Z,20.39
2022-10-23T22:54:00.085Z,20.38
2022-10-23T22:56:29.896Z,20.37
2022-10-23T22:58:57.071Z,20.37
2022-10-23T23:01:26.457Z,20.38
2022-10-23T23:03:53.816Z,20.37
2022-10-23T23:06:21.513Z,20.37
2022-10-23T23:08:48.738Z,20.36
2022-10-23T23:11:16.770Z,20.36
2022-10-23T23:13:43.833Z,20.36
2022-10-23T23:16:28.087Z,20.36
2022-10-23T23:18:55.892Z,20.35
2022-10-23T23:21:22.395Z,20.35
2022-10-23T23:23:49.182Z,20.35
2022-10-23T23:26:17.108Z,20.34
2022-10-23T23:28:44.354Z,20.33
2022-10-23T23:31:19.494Z,20.32
2022-10-23T23:33:46.023Z,20.33
2022-10-23T23:36:16.032Z,20.32
2022-10-23T23:38:42.648Z,20.31
2022-10-23T23:41:14.216Z,20.31
2022-10-23T23:43:41.329Z,20.31
2022-10-23T23:46:08.184Z,20.32
2022-10-23T23:48:34.673Z,20.30
2022-10-23T23:51:01.152Z,20.30
2022-10-23T23:53:27.678Z,20.31
2022-10-23T23:55:54.203Z,20.30
2022-10-23T23:58:20.664Z,20.28
